Time;durP1;ratioP1;P1;durP2;ratioP2;P2;SDS_P1;SDS_P2;PMS_P1;PMS_P2;Temp;Humidity;BMP_temperature;BMP_pressure;BME280_temperature;BME280_humidity;BME280_pressure;Samples;Min_cycle;Max_cycle;Signal;HPM_P1;HPM_P2
2023/08/20 00:01:28;;;;;;;17.33;14.85;;;;;;;-145.63;49.64;38234.25;5024133;28;20025;-67
2023/08/20 00:03:55;;;;;;;15.32;13.52;;;;;;;-145.63;49.48;38257.72;5025075;28;20136;-68
2023/08/20 00:06:22;;;;;;;16.52;14.82;;;;;;;-145.63;49.61;38244.03;5025051;28;20018;-68
2023/08/20 00:08:48;;;;;;;17.35;15.65;;;;;;;-145.63;49.53;38253.81;5023767;28;20337;-67
2023/08/20 00:11:14;;;;;;;17.63;15.60;;;;;;;-145.63;49.68;38236.22;5024943;28;20033;-67
2023/08/20 00:13:40;;;;;;;17.92;14.38;;;;;;;-145.63;49.60;38242.09;5024833;28;20046;-67
2023/08/20 00:16:06;;;;;;;16.50;14.80;;;;;;;-145.63;49.65;38253.81;5024859;28;20080;-67
2023/08/20 00:18:32;;;;;;;19.30;14.57;;;;;;;-145.63;49.71;38300.75;5024687;28;20056;-67
2023/08/20 00:20:59;;;;;;;16.45;14.75;;;;;;;-145.63;49.93;38249.91;5024862;28;20033;-67
2023/08/20 00:23:25;;;;;;;18.27;14.52;;;;;;;-145.63;49.90;38263.59;5024385;28;20057;-67
2023/08/20 00:25:51;;;;;;;16.80;14.93;;;;;;;-145.63;50.05;38226.44;5024681;28;20093;-67
2023/08/20 00:28:18;;;;;;;19.35;14.80;;;;;;;-145.63;50.16;38253.81;5023466;28;20075;-67
2023/08/20 00:30:45;;;;;;;16.80;14.55;;;;;;;-145.63;50.37;38287.06;5024597;28;20044;-67
2023/08/20 00:33:10;;;;;;;18.58;14.93;;;;;;;-145.63;50.71;38292.91;5024709;28;20037;-67
2023/08/20 00:35:36;;;;;;;17.33;15.50;;;;;;;-145.63;50.69;38324.19;5024733;28;20348;-67
2023/08/20 00:38:02;;;;;;;16.48;14.88;;;;;;;-145.63;50.66;38312.47;5024549;28;20040;-67
2023/08/20 00:40:28;;;;;;;17.45;15.75;;;;;;;-145.63;50.83;38322.25;5024143;28;20018;-67
2023/08/20 00:42:53;;;;;;;17.10;14.80;;;;;;;-145.63;51.00;38281.19;5024614;28;20040;-67
2023/08/20 00:45:19;;;;;;;17.83;14.43;;;;;;;-145.63;51.07;38316.38;5024338;28;20030;-66
2023/08/20 00:47:45;;;;;;;15.93;13.82;;;;;;;-145.63;50.88;38335.94;5022787;28;20336;-66
2023/08/20 00:50:11;;;;;;;17.65;15.10;;;;;;;-145.63;51.10;38316.38;5023179;28;20065;-68
2023/08/20 00:52:38;;;;;;;15.65;14.10;;;;;;;-145.63;51.25;38308.56;5024166;28;20037;-68
2023/08/20 00:55:12;;;;;;;18.15;14.30;;;;;;;-145.63;51.73;38333.97;5023923;28;20042;-67
2023/08/20 00:57:39;;;;;;;16.83;15.18;;;;;;;-145.63;51.66;38339.84;5024262;28;20018;-68
2023/08/20 01:00:10;;;;;;;16.48;14.63;;;;;;;-145.63;51.59;38326.16;5024148;28;20022;-67
2023/08/20 01:02:37;;;;;;;16.50;14.63;;;;;;;-145.63;51.70;38355.50;5023832;28;20097;-67
2023/08/20 01:05:07;;;;;;;16.63;14.93;;;;;;;-145.63;51.73;38363.31;5023974;28;20097;-68
2023/08/20 01:07:38;;;;;;;19.05;15.10;;;;;;;-145.63;51.63;38377.00;5023888;28;20030;-68
2023/08/20 01:10:22;;;;;;;17.95;16.05;;;;;;;-145.63;51.55;38343.75;5022601;28;20041;-67
2023/08/20 01:12:49;;;;;;;17.33;15.52;;;;;;;-145.63;51.69;38363.31;5015101;28;20030;-68
2023/08/20 01:15:16;;;;;;;18.05;16.10;;;;;;;-145.63;51.30;38332.03;5023789;28;20353;-68
2023/08/20 01:17:42;;;;;;;18.75;16.75;;;;;;;-145.63;51.60;38363.31;5023644;28;20096;-67
2023/08/20 01:20:11;;;;;;;18.67;16.35;;;;;;;-145.63;51.64;38347.66;5023542;28;20033;-67
2023/08/20 01:22:49;;;;;;;20.05;16.23;;;;;;;-145.63;51.52;38345.72;5023389;28;20049;-68
2023/08/20 01:25:37;;;;;;;17.60;15.75;;;;;;;-145.63;51.87;38361.34;5023374;28;20033;-67
2023/08/20 01:28:17;;;;;;;17.40;15.70;;;;;;;-145.63;51.68;38369.19;5022210;28;20274;-67
2023/08/20 01:30:44;;;;;;;22.33;16.08;;;;;;;-145.63;51.60;38343.75;5022337;28;20245;-68
2023/08/20 01:33:12;;;;;;;19.35;16.73;;;;;;;-145.63;51.77;38441.53;5013662;28;20499;-66
2023/08/20 01:35:38;;;;;;;20.65;16.25;;;;;;;-145.63;52.00;38377.00;5021027;28;20053;-67
2023/08/20 01:38:04;;;;;;;17.70;16.00;;;;;;;-145.63;51.72;38427.84;5023859;28;20209;-68
2023/08/20 01:40:31;;;;;;;17.90;15.40;;;;;;;-145.63;51.85;38378.94;5023419;28;20049;-66
2023/08/20 01:42:57;;;;;;;17.77;15.15;;;;;;;-145.63;51.75;38365.25;5023416;28;20025;-68
2023/08/20 01:45:23;;;;;;;17.90;15.80;;;;;;;-145.63;51.85;38378.94;5023477;28;20065;-68
2023/08/20 01:47:48;;;;;;;17.65;15.88;;;;;;;-145.63;52.19;38398.50;5023360;28;20042;-67
2023/08/20 01:50:14;;;;;;;16.85;15.20;;;;;;;-145.63;52.06;38384.81;5023457;28;20349;-68
2023/08/20 01:52:40;;;;;;;17.75;15.77;;;;;;;-145.63;52.13;38421.97;5023282;28;20137;-68
2023/08/20 01:55:06;;;;;;;16.45;14.85;;;;;;;-145.63;52.34;38425.88;5012883;28;20030;-68
2023/08/20 01:57:32;;;;;;;18.00;16.02;;;;;;;-145.63;52.35;38406.31;5023367;28;20030;-68
2023/08/20 01:59:58;;;;;;;17.98;16.05;;;;;;;-145.63;52.35;38410.22;5003462;28;20099;-68
2023/08/20 02:02:24;;;;;;;18.08;16.17;;;;;;;-145.63;52.61;38377.00;5018863;28;20025;-67
2023/08/20 02:04:50;;;;;;;20.08;16.35;;;;;;;-145.63;52.76;38425.88;5023207;28;20026;-68
2023/08/20 02:07:16;;;;;;;19.88;15.80;;;;;;;-145.63;53.06;38373.09;5026053;28;20029;-67
2023/08/20 02:09:42;;;;;;;19.00;16.23;;;;;;;-145.63;52.98;38406.31;5026811;28;20025;-68
2023/08/20 02:12:08;;;;;;;17.20;15.40;;;;;;;-145.63;53.78;38429.78;5027158;28;20047;-67
2023/08/20 02:14:34;;;;;;;22.95;16.90;;;;;;;-145.63;53.78;38394.59;5026940;28;20310;-67
2023/08/20 02:17:04;;;;;;;19.63;17.20;;;;;;;-145.63;54.07;38400.47;5027047;28;20033;-67
2023/08/20 02:19:29;;;;;;;25.95;18.92;;;;;;;-145.63;54.41;38361.34;5027031;28;20042;-67
2023/08/20 02:21:55;;;;;;;23.55;17.00;;;;;;;-145.63;54.61;38414.16;5025521;28;20222;-68
2023/08/20 02:24:21;;;;;;;20.10;17.90;;;;;;;-145.63;55.12;38414.16;5026883;28;20084;-68
2023/08/20 02:26:47;;;;;;;21.45;18.30;;;;;;;-145.63;54.61;38437.59;5026782;28;20229;-67
2023/08/20 02:29:12;;;;;;;22.55;18.27;;;;;;;-145.63;54.49;38406.31;5026759;28;20021;-67
2023/08/20 02:31:38;;;;;;;21.00;18.35;;;;;;;-145.63;54.92;38435.66;5026405;28;20026;-67
2023/08/20 02:34:04;;;;;;;20.48;18.30;;;;;;;-145.63;55.35;38421.97;5025588;28;20022;-68
2023/08/20 02:36:30;;;;;;;19.90;17.05;;;;;;;-145.63;55.30;38421.97;5026595;28;20234;-67
2023/08/20 02:38:55;;;;;;;19.23;17.25;;;;;;;-145.63;55.45;38433.69;5026647;28;20026;-67
2023/08/20 02:41:21;;;;;;;20.50;18.50;;;;;;;-145.63;55.51;38437.59;5026369;28;20041;-67
2023/08/20 02:43:48;;;;;;;20.20;16.95;;;;;;;-145.63;55.24;38488.44;5025303;28;20102;-67
2023/08/20 02:46:14;;;;;;;19.23;17.35;;;;;;;-145.63;55.78;38427.84;5012160;28;20210;-67
2023/08/20 02:48:40;;;;;;;20.45;17.40;;;;;;;-145.63;55.74;38420.00;5026443;28;20059;-67
2023/08/20 02:51:05;;;;;;;19.55;16.98;;;;;;;-145.63;55.91;38420.00;5026381;28;20097;-67
2023/08/20 02:53:31;;;;;;;18.85;16.85;;;;;;;-145.63;55.20;38443.47;5026293;28;20056;-67
2023/08/20 02:55:57;;;;;;;21.88;18.02;;;;;;;-145.63;55.22;38433.69;5026206;28;20093;-66
2023/08/20 02:58:22;;;;;;;18.98;16.90;;;;;;;-145.63;54.57;38402.41;5026437;28;20030;-68
2023/08/20 03:00:48;;;;;;;19.73;17.63;;;;;;;-145.63;54.76;38433.69;5026082;28;20206;-67
2023/08/20 03:03:14;;;;;;;21.15;18.55;;;;;;;-145.63;54.74;38421.97;5025213;28;20199;-67
2023/08/20 03:05:40;;;;;;;18.77;16.83;;;;;;;-145.63;54.72;38412.19;5025810;28;20322;-68
2023/08/20 03:08:06;;;;;;;23.92;18.00;;;;;;;-145.63;54.73;38398.50;5025655;28;20215;-68
2023/08/20 03:10:32;;;;;;;21.60;19.30;;;;;;;-145.63;54.76;38435.66;5025469;28;20033;-67
2023/08/20 03:12:59;;;;;;;24.30;18.42;;;;;;;-145.63;54.40;38421.97;5025887;28;20038;-67
2023/08/20 03:15:24;;;;;;;21.55;18.00;;;;;;;-145.63;55.03;38406.31;5025958;28;20025;-68
2023/08/20 03:17:50;;;;;;;21.40;18.25;;;;;;;-145.63;55.47;38410.22;5024504;28;20025;-68
2023/08/20 03:20:16;;;;;;;21.33;19.02;;;;;;;-145.63;55.29;38394.59;5024880;28;20337;-68
2023/08/20 03:22:41;;;;;;;26.33;20.38;;;;;;;-145.63;55.22;38371.13;5024489;28;20333;-68
2023/08/20 03:25:07;;;;;;;23.67;18.55;;;;;;;-145.63;54.92;38398.50;5025639;28;20209;-68
2023/08/20 03:27:33;;;;;;;23.10;19.25;;;;;;;-145.63;53.91;38355.50;5025729;28;20049;-69
2023/08/20 03:29:59;;;;;;;21.77;19.55;;;;;;;-145.63;54.02;38398.50;5025762;28;20044;-70
2023/08/20 03:32:25;;;;;;;24.70;20.48;;;;;;;-145.63;53.60;38429.78;5025652;28;20030;-67
2023/08/20 03:34:53;;;;;;;22.95;19.60;;;;;;;-145.63;53.68;38400.47;5025590;28;20034;-69
2023/08/20 03:37:18;;;;;;;22.60;20.10;;;;;;;-145.63;54.03;38410.22;5025930;28;20026;-69
2023/08/20 03:39:44;;;;;;;20.92;18.77;;;;;;;-145.63;53.61;38406.31;5025662;28;20038;-67
2023/08/20 03:42:10;;;;;;;22.60;19.52;;;;;;;-145.63;53.88;38421.97;5025422;28;20294;-67
2023/08/20 03:44:35;;;;;;;24.50;20.52;;;;;;;-145.63;53.32;38406.31;5025577;28;20289;-67
2023/08/20 03:47:01;;;;;;;24.17;18.65;;;;;;;-145.63;53.18;38382.88;5025332;28;20022;-66
2023/08/20 03:49:27;;;;;;;22.20;19.88;;;;;;;-145.63;53.92;38433.69;5025508;28;20030;-67
2023/08/20 03:51:52;;;;;;;23.30;20.20;;;;;;;-145.63;54.08;38488.44;5025193;28;20029;-67
2023/08/20 03:54:18;;;;;;;23.52;19.65;;;;;;;-145.63;53.94;38472.81;5025279;28;20376;-68
2023/08/20 03:56:43;;;;;;;22.38;19.33;;;;;;;-145.63;54.22;38476.72;5025002;28;20363;-68
2023/08/20 03:59:09;;;;;;;22.50;19.50;;;;;;;-145.63;54.31;38457.16;5025201;28;20033;-68
2023/08/20 04:01:36;;;;;;;29.15;21.85;;;;;;;-145.63;56.03;38496.28;5024916;28;20033;-67
2023/08/20 04:04:03;;;;;;;27.90;21.00;;;;;;;-145.63;55.71;38494.31;5025093;28;20026;-67
2023/08/20 04:06:29;;;;;;;29.92;21.65;;;;;;;-145.63;56.19;38496.28;5024956;28;20069;-67
2023/08/20 04:08:54;;;;;;;23.50;20.83;;;;;;;-145.63;56.34;38496.28;5024977;28;20022;-67
2023/08/20 04:11:20;;;;;;;33.67;22.98;;;;;;;-145.63;56.41;38519.72;5025050;28;20360;-68
2023/08/20 04:13:46;;;;;;;24.40;21.75;;;;;;;-145.63;56.43;38494.31;5024557;28;20032;-66
2023/08/20 04:16:13;;;;;;;27.10;24.30;;;;;;;-145.63;57.19;38551.03;5024804;28;20041;-66
2023/08/20 04:18:39;;;;;;;27.40;24.27;;;;;;;-145.63;57.79;38566.66;5024736;28;20342;-66
2023/08/20 04:21:05;;;;;;;26.73;23.48;;;;;;;-145.63;57.78;38558.84;5024782;28;20026;-69
2023/08/20 04:23:31;;;;;;;26.10;22.58;;;;;;;-145.63;57.55;38556.88;5024391;28;20238;-67
2023/08/20 04:25:56;;;;;;;27.83;24.80;;;;;;;-145.63;57.97;38539.28;5024660;28;20098;-67
2023/08/20 04:28:22;;;;;;;28.58;24.08;;;;;;;-145.63;58.49;38547.09;5024284;28;20092;-68
2023/08/20 04:30:49;;;;;;;32.03;24.88;;;;;;;-145.63;58.10;38566.66;5024286;28;20198;-68
2023/08/20 04:33:15;;;;;;;26.58;23.50;;;;;;;-145.63;57.82;38570.56;5024590;28;20029;-66
2023/08/20 04:35:40;;;;;;;27.38;22.02;;;;;;;-145.63;58.17;38549.06;5024260;28;20029;-67
2023/08/20 04:38:07;;;;;;;27.02;24.05;;;;;;;-145.63;58.49;38494.31;5024360;28;20022;-68
2023/08/20 04:40:33;;;;;;;24.98;22.30;;;;;;;-145.63;58.22;38472.81;5024182;28;20365;-67
2023/08/20 04:42:59;;;;;;;32.13;25.35;;;;;;;-145.63;58.42;38535.38;5024238;28;20040;-67
2023/08/20 04:45:24;;;;;;;28.02;24.70;;;;;;;-145.63;58.53;38543.19;5024287;28;20034;-66
2023/08/20 04:47:50;;;;;;;26.52;23.73;;;;;;;-145.63;58.59;38529.50;5024146;28;20241;-67
2023/08/20 04:50:15;;;;;;;30.55;25.38;;;;;;;-145.63;58.51;38490.41;5024217;28;20030;-66
2023/08/20 04:52:41;;;;;;;31.10;24.77;;;;;;;-145.63;59.32;38488.44;5023951;28;20030;-67
2023/08/20 04:55:08;;;;;;;27.77;24.17;;;;;;;-145.63;59.24;38552.97;5022960;28;20034;-67
2023/08/20 04:57:34;;;;;;;28.33;24.75;;;;;;;-145.63;58.96;38566.66;5024169;28;20271;-67
2023/08/20 04:59:59;;;;;;;27.33;24.42;;;;;;;-145.63;59.40;38558.84;5024067;28;20030;-67
2023/08/20 05:02:25;;;;;;;26.38;23.60;;;;;;;-145.63;59.42;38533.41;5024038;28;20029;-67
2023/08/20 05:04:51;;;;;;;30.17;24.38;;;;;;;-145.63;58.98;38551.03;5023729;28;20037;-67
2023/08/20 05:07:17;;;;;;;26.17;23.42;;;;;;;-145.63;58.80;38531.47;5023129;28;20213;-67
2023/08/20 05:09:44;;;;;;;28.73;25.52;;;;;;;-145.63;58.73;38535.38;5023958;28;20046;-65
2023/08/20 05:12:10;;;;;;;26.92;24.13;;;;;;;-145.63;58.75;38482.59;5022862;28;20049;-66
2023/08/20 05:14:35;;;;;;;26.90;24.05;;;;;;;-145.63;58.82;38494.31;5023590;28;20029;-66
2023/08/20 05:17:01;;;;;;;27.30;24.40;;;;;;;-145.63;58.52;38486.50;5023824;28;20026;-66
2023/08/20 05:19:26;;;;;;;27.90;24.65;;;;;;;-145.63;58.82;38431.75;5023619;28;20038;-65
2023/08/20 05:21:55;;;;;;;27.83;24.88;;;;;;;-145.63;58.75;38427.84;5023503;28;20052;-66
2023/08/20 05:24:22;;;;;;;29.10;25.98;;;;;;;-145.63;58.72;38423.91;5023560;28;20033;-66
2023/08/20 05:27:23;;;;;;;31.13;25.90;;;;;;;-145.63;58.91;38437.59;5022315;28;20021;-66
2023/08/20 05:29:49;;;;;;;26.50;23.63;;;;;;;-145.63;58.57;38429.78;5022997;28;20061;-68
2023/08/20 05:32:16;;;;;;;29.23;25.50;;;;;;;-145.63;58.66;38423.91;5023595;28;20025;-67
2023/08/20 05:34:42;;;;;;;29.10;25.67;;;;;;;-145.63;58.72;38382.88;5023397;28;20017;-67
2023/08/20 05:37:08;;;;;;;29.38;26.10;;;;;;;-145.63;59.13;38367.22;5023524;28;20065;-68
2023/08/20 05:39:43;;;;;;;32.47;26.48;;;;;;;-145.63;59.31;38386.78;5023619;28;20025;-67
2023/08/20 05:42:09;;;;;;;26.05;23.38;;;;;;;-145.63;59.10;38382.88;5022598;28;20026;-67
2023/08/20 05:44:35;;;;;;;26.80;23.00;;;;;;;-145.63;59.50;38378.94;5023221;28;20068;-66
2023/08/20 05:47:01;;;;;;;23.50;20.80;;;;;;;-145.63;58.98;38392.63;5023390;28;20056;-67
2023/08/20 05:49:27;;;;;;;24.88;22.13;;;;;;;-145.63;59.73;38414.16;5023409;28;20325;-66
2023/08/20 05:51:53;;;;;;;24.30;21.50;;;;;;;-145.63;59.69;38421.97;5023194;28;20256;-67
2023/08/20 05:54:19;;;;;;;22.77;20.45;;;;;;;-145.63;59.49;38328.13;5022208;28;20061;-67
2023/08/20 05:56:44;;;;;;;21.73;19.52;;;;;;;-145.63;59.00;38332.03;5023168;28;20314;-68
2023/08/20 05:59:10;;;;;;;22.73;20.23;;;;;;;-145.63;58.39;38373.09;5021981;28;20026;-66
2023/08/20 06:01:36;;;;;;;22.40;20.08;;;;;;;-145.63;58.60;38416.09;5023342;28;20040;-67
2023/08/20 06:04:01;;;;;;;23.10;19.77;;;;;;;-145.63;58.80;38371.13;5023253;28;20253;-67
2023/08/20 06:06:27;;;;;;;22.92;19.27;;;;;;;-145.63;58.75;38328.13;5023043;28;20325;-67
2023/08/20 06:08:53;;;;;;;21.83;19.55;;;;;;;-145.63;58.34;38339.84;5023027;28;20026;-67
2023/08/20 06:11:20;;;;;;;22.25;19.85;;;;;;;-145.63;58.11;38361.34;5019212;28;20076;-66
2023/08/20 06:13:46;;;;;;;20.75;18.63;;;;;;;-145.63;57.94;38343.75;5022865;28;20025;-67
2023/08/20 06:16:11;;;;;;;21.70;19.35;;;;;;;-145.63;57.92;38328.13;5023200;28;20301;-67
2023/08/20 06:18:37;;;;;;;21.60;19.42;;;;;;;-145.63;58.05;38332.03;5022928;28;20321;-66
2023/08/20 06:21:03;;;;;;;22.42;19.92;;;;;;;-145.63;57.70;38345.72;5022908;28;20030;-68
2023/08/20 06:23:29;;;;;;;19.83;17.83;;;;;;;-145.63;57.30;38347.66;5022453;28;20033;-67
2023/08/20 06:25:54;;;;;;;20.17;18.15;;;;;;;-145.63;57.43;38355.50;5022736;28;20357;-68
2023/08/20 06:28:20;;;;;;;19.15;17.15;;;;;;;-145.63;57.29;38269.47;5022793;28;20030;-67
2023/08/20 06:30:46;;;;;;;20.73;17.27;;;;;;;-145.63;57.45;38220.56;5021441;28;20022;-65
2023/08/20 06:33:12;;;;;;;19.30;17.20;;;;;;;-145.63;57.37;38232.31;5022484;28;20049;-66
2023/08/20 06:35:38;;;;;;;19.38;17.02;;;;;;;-145.63;55.38;38267.50;5022428;28;20049;-67
2023/08/20 06:38:04;;;;;;;21.00;17.30;;;;;;;-145.63;55.01;38244.03;5023149;28;20052;-67
2023/08/20 06:40:30;;;;;;;21.10;17.20;;;;;;;-145.63;55.49;38222.53;5022809;28;20310;-67
2023/08/20 06:42:56;;;;;;;17.95;16.15;;;;;;;-145.63;55.30;38257.72;5023032;28;20033;-67
2023/08/20 06:45:22;;;;;;;17.55;15.77;;;;;;;-145.63;54.90;38224.47;5022677;28;20038;-67
2023/08/20 06:47:47;;;;;;;18.45;16.60;;;;;;;-145.63;55.55;38232.31;5022757;28;20040;-67
2023/08/20 06:50:13;;;;;;;18.90;16.95;;;;;;;-145.63;55.26;38154.09;5022735;28;20034;-66
2023/08/20 06:52:39;;;;;;;17.20;14.98;;;;;;;-145.63;54.43;38187.34;5024373;28;20318;-67
2023/08/20 06:55:05;;;;;;;17.05;15.30;;;;;;;-145.63;54.38;38152.16;5026298;28;20084;-66
2023/08/20 06:57:31;;;;;;;17.65;15.93;;;;;;;-145.63;54.57;38113.03;5026237;28;20025;-66
2023/08/20 06:59:57;;;;;;;18.17;15.93;;;;;;;-145.63;54.30;38109.13;5026409;28;20029;-67
2023/08/20 07:02:22;;;;;;;19.33;17.33;;;;;;;-145.63;53.61;38120.88;5025190;28;20030;-67
2023/08/20 07:04:48;;;;;;;15.30;13.88;;;;;;;-145.63;53.64;38103.25;5025982;28;20029;-68
2023/08/20 07:07:14;;;;;;;15.43;13.85;;;;;;;-145.63;52.55;38101.31;5025956;28;20045;-66
2023/08/20 07:09:40;;;;;;;15.15;13.73;;;;;;;-145.63;52.54;38036.78;5025842;28;20018;-66
2023/08/20 07:12:07;;;;;;;15.50;13.80;;;;;;;-145.63;52.71;38052.44;5025910;28;20302;-67
2023/08/20 07:14:33;;;;;;;14.55;13.07;;;;;;;-145.63;52.02;38042.66;5025738;28;20065;-66
2023/08/20 07:17:02;;;;;;;14.93;13.45;;;;;;;-145.63;52.68;38048.53;5025911;28;20108;-67
2023/08/20 07:19:28;;;;;;;16.85;13.93;;;;;;;-145.63;52.01;37997.69;5025739;28;20030;-67
2023/08/20 07:21:54;;;;;;;14.85;13.38;;;;;;;-145.63;52.16;37984.00;5025715;28;20046;-67
2023/08/20 07:24:25;;;;;;;13.80;12.30;;;;;;;-145.63;51.09;38001.59;5025845;28;20060;-68
2023/08/20 07:26:51;;;;;;;13.32;11.93;;;;;;;-145.63;50.94;37976.19;5025362;28;20234;-68
2023/08/20 07:29:17;;;;;;;12.98;11.77;;;;;;;-145.63;51.68;37933.16;5025415;28;20317;-68
2023/08/20 07:31:43;;;;;;;13.23;11.80;;;;;;;-145.63;50.37;37921.44;5024212;28;20044;-67
2023/08/20 07:34:08;;;;;;;11.77;10.07;;;;;;;-145.63;50.22;37890.16;5025794;28;20026;-67
2023/08/20 07:36:34;;;;;;;11.68;10.30;;;;;;;-145.63;50.32;37897.97;5025490;28;20022;-67
2023/08/20 07:39:01;;;;;;;11.20;10.13;;;;;;;-145.63;49.71;37884.28;5025583;28;20210;-67
2023/08/20 07:41:26;;;;;;;9.60;8.55;;;;;;;-145.63;49.16;37874.53;5024993;28;20022;-68
2023/08/20 07:43:52;;;;;;;9.05;8.25;;;;;;;-145.63;48.88;37811.97;5023920;28;20036;-67
2023/08/20 07:46:19;;;;;;;10.05;8.13;;;;;;;-145.63;47.96;37780.69;5025168;28;20029;-67
2023/08/20 07:48:45;;;;;;;11.82;9.05;;;;;;;-145.63;47.95;37784.59;5024971;28;20266;-67
2023/08/20 07:51:11;;;;;;;8.75;7.95;;;;;;;-145.63;47.27;37811.97;5025148;28;20337;-67
2023/08/20 07:53:37;;;;;;;10.88;9.65;;;;;;;-145.63;47.23;37794.38;5025265;28;20036;-67
2023/08/20 07:56:03;;;;;;;11.98;9.60;;;;;;;-145.63;47.79;37712.25;5025395;28;20033;-67
2023/08/20 07:58:29;;;;;;;10.77;8.40;;;;;;;-145.63;47.21;37731.81;5025306;28;20337;-67
2023/08/20 08:00:55;;;;;;;11.70;8.30;;;;;;;-145.63;47.02;37739.63;5025182;28;20029;-66
2023/08/20 08:03:21;;;;;;;10.32;8.50;;;;;;;-145.63;46.90;37772.84;5024514;28;20036;-67
2023/08/20 08:05:48;;;;;;;9.18;7.70;;;;;;;-145.63;46.19;37761.13;5024567;28;20230;-68
2023/08/20 08:08:14;;;;;;;12.13;7.70;;;;;;;-145.63;45.95;37722.03;5023538;28;20107;-67
2023/08/20 08:10:40;;;;;;;7.55;6.85;;;;;;;-145.63;46.12;37735.72;5024758;28;20071;-67
2023/08/20 08:13:06;;;;;;;9.52;8.40;;;;;;;-145.63;45.67;37782.63;5023810;28;20217;-67
2023/08/20 08:15:31;;;;;;;9.18;7.35;;;;;;;-145.63;44.54;37723.97;5024704;28;20038;-67
2023/08/20 08:17:57;;;;;;;7.28;6.57;;;;;;;-145.63;45.49;37698.56;5024625;28;20337;-67
2023/08/20 08:20:23;;;;;;;10.10;8.60;;;;;;;-145.63;44.91;37679.03;5024782;28;20034;-66
2023/08/20 08:22:48;;;;;;;11.07;8.68;;;;;;;-145.63;45.62;37653.59;5023381;28;20230;-67
2023/08/20 08:25:14;;;;;;;9.13;7.25;;;;;;;-145.63;45.11;37661.44;5024522;28;20033;-66
2023/08/20 08:27:40;;;;;;;9.00;7.20;;;;;;;-145.63;44.67;37667.28;5024638;28;20025;-67
2023/08/20 08:30:06;;;;;;;8.43;7.63;;;;;;;-145.63;44.00;37643.84;5024505;28;20105;-66
2023/08/20 08:32:32;;;;;;;11.15;8.60;;;;;;;-145.63;44.10;37573.47;5024233;28;20322;-67
2023/08/20 08:34:57;;;;;;;9.95;7.07;;;;;;;-145.63;44.06;37581.28;5023242;28;20068;-67
2023/08/20 08:37:23;;;;;;;8.07;7.25;;;;;;;-145.63;43.63;37553.91;5024403;28;20244;-67
2023/08/20 08:39:49;;;;;;;8.75;6.80;;;;;;;-145.63;43.93;37579.31;5024256;28;20033;-67
2023/08/20 08:42:16;;;;;;;10.43;7.28;;;;;;;-145.63;43.42;37487.44;5024547;28;20028;-67
2023/08/20 08:44:43;;;;;;;11.50;8.10;;;;;;;-145.63;43.64;37456.16;5024069;28;20037;-68
2023/08/20 08:47:09;;;;;;;8.20;7.40;;;;;;;-145.63;42.97;37514.81;5024161;28;20030;-67
2023/08/20 08:49:35;;;;;;;9.75;8.05;;;;;;;-145.63;43.16;37405.34;5024170;28;20040;-68
2023/08/20 08:52:03;;;;;;;7.88;6.90;;;;;;;-145.63;42.77;37381.88;5024205;28;20214;-67
2023/08/20 08:54:29;;;;;;;8.18;7.38;;;;;;;-145.63;42.24;37325.19;5024117;28;20029;-68
2023/08/20 08:56:56;;;;;;;8.20;7.43;;;;;;;-145.63;41.22;37301.72;5023850;28;20025;-68
2023/08/20 08:59:21;;;;;;;8.93;7.18;;;;;;;-145.63;41.94;37221.59;5023913;28;20148;-67
2023/08/20 09:01:47;;;;;;;8.05;7.05;;;;;;;-145.63;41.67;37194.22;5023810;28;20033;-68
2023/08/20 09:04:13;;;;;;;9.70;7.55;;;;;;;-145.63;41.45;37143.41;5023934;28;20033;-66
2023/08/20 09:06:52;;;;;;;9.73;6.90;;;;;;;-145.63;39.71;37182.50;5023699;28;20025;-67
2023/08/20 09:09:20;;;;;;;9.07;6.80;;;;;;;-145.63;38.79;37100.41;5023911;28;20041;-67
2023/08/20 09:11:47;;;;;;;10.57;6.72;;;;;;;-145.63;38.49;37108.22;5022539;28;20033;-68
2023/08/20 09:14:29;;;;;;;6.75;6.22;;;;;;;-145.63;37.28;37192.28;5023703;28;20030;-66
2023/08/20 09:16:59;;;;;;;9.57;6.82;;;;;;;-145.63;37.82;37114.09;5023464;28;20061;-67
2023/08/20 09:19:30;;;;;;;8.40;7.60;;;;;;;-145.63;38.98;36568.78;5023883;28;20073;-67
2023/08/20 09:21:58;;;;;;;7.40;6.68;;;;;;;-145.63;37.67;37041.75;5022441;28;20112;-68
2023/08/20 09:24:39;;;;;;;7.80;7.07;;;;;;;-145.63;38.44;36944.03;5022311;28;20202;-68
2023/08/20 09:27:05;;;;;;;8.10;7.03;;;;;;;-145.63;38.86;36971.41;5023565;28;20262;-68
2023/08/20 09:29:33;;;;;;;11.23;9.98;;;;;;;-145.63;39.46;36949.91;5022551;28;20030;-67
2023/08/20 09:32:02;;;;;;;9.55;8.55;;;;;;;-145.63;38.55;36928.41;5023604;28;20034;-67
2023/08/20 09:34:41;;;;;;;11.23;7.78;;;;;;;-145.63;38.13;37026.13;5023586;28;20034;-66
2023/08/20 09:37:14;;;;;;;9.48;7.40;;;;;;;-145.63;38.20;37135.59;5023311;28;20041;-67
2023/08/20 09:39:40;;;;;;;9.45;8.10;;;;;;;-145.63;38.66;37139.50;5023603;28;20064;-67
2023/08/20 09:42:07;;;;;;;8.73;7.88;;;;;;;-145.63;38.69;37080.84;5023403;28;20068;-66
2023/08/20 09:44:35;;;;;;;11.52;9.18;;;;;;;-145.63;38.89;37118.00;5022344;28;20030;-67
2023/08/20 09:47:06;;;;;;;9.88;7.53;;;;;;;-145.63;40.18;37127.78;5023322;28;20033;-68
2023/08/20 09:49:41;;;;;;;10.73;9.50;;;;;;;-145.63;40.32;37075.00;5023398;28;20041;-67
2023/08/20 09:52:09;;;;;;;10.05;8.30;;;;;;;-145.63;39.39;37198.13;5022111;28;20221;-67
2023/08/20 09:54:48;;;;;;;9.02;7.85;;;;;;;-145.63;38.61;37194.22;5023372;28;20038;-68
2023/08/20 09:57:40;;;;;;;10.52;8.65;;;;;;;-145.63;38.82;37217.69;5023255;28;20025;-68
2023/08/20 10:00:12;;;;;;;10.32;9.30;;;;;;;-145.63;39.50;37192.28;5018605;28;20042;-67
2023/08/20 10:02:38;;;;;;;13.52;10.40;;;;;;;-145.63;40.60;37145.34;5023106;28;20076;-66
2023/08/20 10:05:08;;;;;;;8.88;7.50;;;;;;;-145.63;40.10;37143.41;5005612;28;20057;-67
2023/08/20 10:07:36;;;;;;;8.60;7.80;;;;;;;-145.63;40.72;37166.84;5023267;28;20034;-66
2023/08/20 10:10:05;;;;;;;8.82;7.93;;;;;;;-145.63;40.55;37059.34;5022090;28;20294;-67
2023/08/20 10:12:32;;;;;;;10.40;8.77;;;;;;;-145.63;39.30;37106.25;5021945;28;20033;-68
2023/08/20 10:15:02;;;;;;;9.32;8.13;;;;;;;-145.63;38.54;37145.34;5023010;28;20121;-67
2023/08/20 10:17:33;;;;;;;11.70;8.55;;;;;;;-145.63;40.28;37155.13;5023057;28;20029;-67
2023/08/20 10:20:02;;;;;;;7.28;6.65;;;;;;;-145.63;39.17;37159.03;5023029;28;20042;-67
2023/08/20 10:22:36;;;;;;;10.48;9.30;;;;;;;-145.63;39.34;37164.91;5007995;28;20041;-65
2023/08/20 10:25:06;;;;;;;9.15;7.40;;;;;;;-145.63;39.34;37118.00;5012973;28;20034;-67
2023/08/20 10:27:33;;;;;;;9.43;7.95;;;;;;;-145.63;39.76;37071.09;5004905;28;20265;-67
2023/08/20 10:30:00;;;;;;;8.55;7.75;;;;;;;-145.63;40.03;37080.84;5022226;28;20045;-68
2023/08/20 10:32:50;;;;;;;8.93;8.02;;;;;;;-145.63;40.09;37141.44;5025599;28;20037;-68
2023/08/20 10:35:18;;;;;;;9.80;8.50;;;;;;;-145.63;39.37;37155.13;5027040;28;20075;-68
2023/08/20 10:38:13;;;;;;;9.15;8.07;;;;;;;-145.63;39.70;37164.91;5026425;28;20026;-68
2023/08/20 10:40:55;;;;;;;10.07;7.20;;;;;;;-145.63;39.50;37123.84;5026416;28;20036;-69
2023/08/20 10:43:32;;;;;;;9.90;7.30;;;;;;;-145.63;39.73;37151.22;5026491;28;20026;-68
2023/08/20 10:46:18;;;;;;;8.40;7.38;;;;;;;-145.63;39.71;37159.03;5026485;28;20022;-68
2023/08/20 10:48:56;;;;;;;8.43;7.53;;;;;;;-145.63;39.69;37131.69;5026024;28;20318;-67
2023/08/20 10:51:28;;;;;;;10.65;9.63;;;;;;;-145.63;39.74;37143.41;5026292;28;20072;-68
2023/08/20 10:54:06;;;;;;;;;;;;;;;-145.63;39.52;37147.31;5026581;28;20104;-67
2023/08/20 10:56:55;;;;;;;9.20;7.82;;;;;;;-145.63;39.83;37172.72;5026221;28;20213;-69
2023/08/20 10:59:27;;;;;;;9.38;7.40;;;;;;;-145.63;39.65;37129.72;5026091;28;20038;-68
2023/08/20 11:01:54;;;;;;;8.45;6.85;;;;;;;-145.63;39.09;37194.22;5024986;28;20332;-69
2023/08/20 11:04:28;;;;;;;7.70;6.78;;;;;;;-145.63;38.86;36803.31;5025970;28;20030;-69
2023/08/20 11:06:58;;;;;;;19.40;16.25;;;;;;;-145.63;38.48;37164.91;5025723;28;20049;-69